THY2847 LTCG-LTFM
Flight info
| Callsign | THY2847 |
|---|---|
| Flight time | 1h 33m |
| Altitude | 36000 |
| Route | TOLUN UL851 KARDE UN644 INB UW702 GUMRU UT315 NUGBA |
| Aircraft | A321/M-SDE3FGHIRWY/LB1 |
Departure
| Time | 2026-05-08 11:09 |
|---|---|
| Airport | Trabzon International Airport (LTCG) |
Arrival
| Time | 2026-05-08 12:42 |
|---|---|
| Airport | İstanbul Airport (LTFM) |
| Time | Latitude | Longitude | Altitude | Speed | Heading |
|---|---|---|---|---|---|
| 2026-05-08 10:28 | 40.99566 | 39.78083 | 116 ft | 0 kts | 202° |
| 2026-05-08 10:59 | 40.99574 | 39.78087 | 116 ft | 4 kts | 205° |
| 2026-05-08 10:59 | 40.99596 | 39.78105 | 116 ft | 4 kts | 224° |
| 2026-05-08 10:59 | 40.99612 | 39.78132 | 114 ft | 4 kts | 254° |
| 2026-05-08 11:00 | 40.99613 | 39.78161 | 115 ft | 2 kts | 291° |
| 2026-05-08 11:00 | 40.99612 | 39.78163 | 115 ft | 0 kts | 292° |
| 2026-05-08 11:03 | 40.99613 | 39.78161 | 115 ft | 1 kts | 292° |
| 2026-05-08 11:03 | 40.99624 | 39.78125 | 113 ft | 7 kts | 292° |
| 2026-05-08 11:03 | 40.99645 | 39.78056 | 113 ft | 9 kts | 293° |
| 2026-05-08 11:03 | 40.99672 | 39.77974 | 115 ft | 10 kts | 293° |
| 2026-05-08 11:04 | 40.99700 | 39.77880 | 115 ft | 12 kts | 291° |
| 2026-05-08 11:04 | 40.99735 | 39.77765 | 109 ft | 16 kts | 291° |
| 2026-05-08 11:04 | 40.99781 | 39.77615 | 109 ft | 17 kts | 293° |
| 2026-05-08 11:04 | 40.99825 | 39.77511 | 108 ft | 10 kts | 319° |
| 2026-05-08 11:05 | 40.99847 | 39.77497 | 110 ft | 0 kts | 342° |
| 2026-05-08 11:07 | 40.99850 | 39.77496 | 110 ft | 1 kts | 345° |
| 2026-05-08 11:07 | 40.99870 | 39.77494 | 110 ft | 4 kts | 1° |
| 2026-05-08 11:07 | 40.99904 | 39.77506 | 111 ft | 5 kts | 19° |
| 2026-05-08 11:07 | 40.99936 | 39.77529 | 110 ft | 5 kts | 44° |
| 2026-05-08 11:08 | 40.99938 | 39.77583 | 110 ft | 4 kts | 107° |
| 2026-05-08 11:08 | 40.99936 | 39.77588 | 110 ft | 0 kts | 109° |
| 2026-05-08 11:08 | 40.99892 | 39.77737 | 108 ft | 53 kts | 112° |
| 2026-05-08 11:08 | 40.99655 | 39.78502 | 109 ft | 123 kts | 112° |
| 2026-05-08 11:09 | 40.99267 | 39.79763 | 298 ft | 157 kts | 113° |
| 2026-05-08 11:09 | 40.98985 | 39.81128 | 1101 ft | 153 kts | 97° |
| 2026-05-08 11:09 | 40.98867 | 39.82567 | 1577 ft | 166 kts | 94° |
| 2026-05-08 11:09 | 40.98726 | 39.84189 | 1844 ft | 188 kts | 97° |
| 2026-05-08 11:10 | 40.98544 | 39.85995 | 2154 ft | 207 kts | 97° |
| 2026-05-08 11:10 | 40.98350 | 39.87941 | 2641 ft | 218 kts | 97° |
| 2026-05-08 11:10 | 40.98252 | 39.89960 | 3353 ft | 223 kts | 79° |
| 2026-05-08 11:10 | 40.98988 | 39.91743 | 3963 ft | 231 kts | 42° |
| 2026-05-08 11:11 | 41.00468 | 39.92690 | 4424 ft | 245 kts | 14° |
| 2026-05-08 11:11 | 41.02165 | 39.93032 | 5177 ft | 248 kts | 5° |
| 2026-05-08 11:11 | 41.03895 | 39.93190 | 5967 ft | 251 kts | 3° |
| 2026-05-08 11:11 | 41.05642 | 39.93106 | 6705 ft | 255 kts | 346° |
| 2026-05-08 11:12 | 41.07259 | 39.92134 | 7454 ft | 258 kts | 323° |
| 2026-05-08 11:12 | 41.08109 | 39.91145 | 7727 ft | 270 kts | 310° |
| 2026-05-08 11:12 | 41.09045 | 39.88939 | 8237 ft | 281 kts | 291° |
| 2026-05-08 11:12 | 41.09783 | 39.86515 | 8942 ft | 286 kts | 292° |
| 2026-05-08 11:13 | 41.10541 | 39.84058 | 9674 ft | 289 kts | 292° |
| 2026-05-08 11:13 | 41.11313 | 39.81568 | 10314 ft | 298 kts | 292° |
| 2026-05-08 11:13 | 41.12133 | 39.78925 | 10514 ft | 322 kts | 292° |
| 2026-05-08 11:13 | 41.13009 | 39.76101 | 10853 ft | 338 kts | 292° |
| 2026-05-08 11:14 | 41.13907 | 39.73190 | 11502 ft | 343 kts | 292° |
| 2026-05-08 11:14 | 41.14815 | 39.70247 | 12211 ft | 346 kts | 292° |
| 2026-05-08 11:14 | 41.15729 | 39.67282 | 12913 ft | 349 kts | 292° |
| 2026-05-08 11:14 | 41.16639 | 39.64328 | 13586 ft | 352 kts | 292° |
| 2026-05-08 11:15 | 41.17565 | 39.61307 | 14234 ft | 355 kts | 293° |
| 2026-05-08 11:15 | 41.18500 | 39.58257 | 14883 ft | 358 kts | 293° |
| 2026-05-08 11:15 | 41.19446 | 39.55176 | 15522 ft | 361 kts | 293° |
| 2026-05-08 11:15 | 41.20410 | 39.52030 | 16153 ft | 365 kts | 293° |
| 2026-05-08 11:16 | 41.21372 | 39.48898 | 16773 ft | 368 kts | 293° |
| 2026-05-08 11:16 | 41.22330 | 39.45775 | 17380 ft | 371 kts | 293° |
| 2026-05-08 11:16 | 41.23306 | 39.42585 | 17972 ft | 374 kts | 294° |
| 2026-05-08 11:16 | 41.24290 | 39.39367 | 18547 ft | 378 kts | 294° |
| 2026-05-08 11:17 | 41.25280 | 39.36120 | 19121 ft | 381 kts | 294° |
| 2026-05-08 11:17 | 41.26277 | 39.32834 | 19684 ft | 384 kts | 293° |
| 2026-05-08 11:17 | 41.27277 | 39.29527 | 20229 ft | 387 kts | 294° |
| 2026-05-08 11:17 | 41.28287 | 39.26191 | 20763 ft | 391 kts | 294° |
| 2026-05-08 11:18 | 41.29192 | 39.22760 | 21290 ft | 396 kts | 286° |
| 2026-05-08 11:18 | 41.29682 | 39.19139 | 21803 ft | 401 kts | 280° |
| 2026-05-08 11:18 | 41.30078 | 39.15460 | 22308 ft | 404 kts | 280° |
| 2026-05-08 11:18 | 41.30481 | 39.11740 | 22802 ft | 407 kts | 280° |
| 2026-05-08 11:19 | 41.30885 | 39.08009 | 23281 ft | 410 kts | 280° |
| 2026-05-08 11:19 | 41.31293 | 39.04238 | 23741 ft | 413 kts | 280° |
| 2026-05-08 11:19 | 41.31703 | 39.00446 | 24182 ft | 416 kts | 280° |
| 2026-05-08 11:19 | 41.32117 | 38.96628 | 24614 ft | 418 kts | 280° |
| 2026-05-08 11:20 | 41.32533 | 38.92785 | 25044 ft | 421 kts | 280° |
| 2026-05-08 11:20 | 41.32947 | 38.88917 | 25471 ft | 423 kts | 280° |
| 2026-05-08 11:20 | 41.33360 | 38.85030 | 25886 ft | 425 kts | 281° |
| 2026-05-08 11:20 | 41.33791 | 38.81123 | 26288 ft | 427 kts | 284° |
| 2026-05-08 11:21 | 41.34572 | 38.77326 | 26675 ft | 425 kts | 293° |
| 2026-05-08 11:21 | 41.35741 | 38.73714 | 27067 ft | 426 kts | 297° |
| 2026-05-08 11:21 | 41.36956 | 38.70105 | 27449 ft | 428 kts | 297° |
| 2026-05-08 11:21 | 41.38170 | 38.66484 | 27845 ft | 429 kts | 297° |
| 2026-05-08 11:22 | 41.39381 | 38.62842 | 28226 ft | 431 kts | 297° |
| 2026-05-08 11:22 | 41.40592 | 38.59178 | 28602 ft | 433 kts | 297° |
| 2026-05-08 11:22 | 41.41805 | 38.55499 | 28965 ft | 435 kts | 297° |
| 2026-05-08 11:22 | 41.43008 | 38.51849 | 29324 ft | 436 kts | 297° |
| 2026-05-08 11:23 | 41.44244 | 38.48099 | 29673 ft | 437 kts | 297° |
| 2026-05-08 11:23 | 41.45435 | 38.44365 | 30020 ft | 438 kts | 293° |
| 2026-05-08 11:23 | 41.46542 | 38.40637 | 30366 ft | 439 kts | 296° |
| 2026-05-08 11:23 | 41.47675 | 38.36799 | 30743 ft | 439 kts | 296° |
| 2026-05-08 11:24 | 41.48789 | 38.33068 | 31117 ft | 439 kts | 295° |
| 2026-05-08 11:24 | 41.49934 | 38.29243 | 31523 ft | 438 kts | 295° |
| 2026-05-08 11:24 | 41.51058 | 38.25474 | 31928 ft | 437 kts | 295° |
| 2026-05-08 11:24 | 41.52174 | 38.21716 | 32350 ft | 435 kts | 295° |
| 2026-05-08 11:25 | 41.53285 | 38.17965 | 32789 ft | 433 kts | 295° |
| 2026-05-08 11:25 | 41.54384 | 38.14237 | 33228 ft | 430 kts | 295° |
| 2026-05-08 11:25 | 41.55472 | 38.10528 | 33684 ft | 427 kts | 294° |
| 2026-05-08 11:25 | 41.56545 | 38.06848 | 34137 ft | 424 kts | 294° |
| 2026-05-08 11:26 | 41.57605 | 38.03194 | 34607 ft | 420 kts | 294° |
| 2026-05-08 11:26 | 41.58647 | 37.99580 | 35087 ft | 415 kts | 294° |
| 2026-05-08 11:26 | 41.59673 | 37.96002 | 35571 ft | 410 kts | 294° |
| 2026-05-08 11:26 | 41.60678 | 37.92472 | 36065 ft | 403 kts | 293° |
| 2026-05-08 11:27 | 41.61642 | 37.89035 | 36527 ft | 396 kts | 292° |
| 2026-05-08 11:27 | 41.62589 | 37.85617 | 36999 ft | 388 kts | 292° |
| 2026-05-08 11:27 | 41.63552 | 37.82263 | 37232 ft | 387 kts | 299° |
| 2026-05-08 11:28 | 41.66552 | 37.76194 | 36477 ft | 402 kts | 307° |
| 2026-05-08 11:28 | 41.68182 | 37.73098 | 36245 ft | 413 kts | 307° |
| 2026-05-08 11:28 | 41.69768 | 37.69843 | 36185 ft | 422 kts | 301° |
| 2026-05-08 11:29 | 41.72333 | 37.62655 | 36203 ft | 433 kts | 294° |
| 2026-05-08 11:29 | 41.74525 | 37.55126 | 36202 ft | 435 kts | 293° |
| 2026-05-08 11:30 | 41.76386 | 37.48798 | 36189 ft | 435 kts | 294° |
| 2026-05-08 11:30 | 41.79115 | 37.40133 | 36194 ft | 434 kts | 295° |
| 2026-05-08 11:31 | 41.81110 | 37.33954 | 36195 ft | 434 kts | 295° |
| 2026-05-08 11:31 | 41.83493 | 37.26499 | 36200 ft | 435 kts | 295° |
| 2026-05-08 11:32 | 41.85847 | 37.19023 | 36203 ft | 435 kts | 295° |
| 2026-05-08 11:32 | 41.88186 | 37.11544 | 36206 ft | 435 kts | 295° |
| 2026-05-08 11:33 | 41.90269 | 37.03931 | 36205 ft | 437 kts | 284° |
| 2026-05-08 11:33 | 41.90991 | 36.95811 | 36201 ft | 439 kts | 277° |
| 2026-05-08 11:34 | 41.91544 | 36.87654 | 36199 ft | 439 kts | 277° |
| 2026-05-08 11:34 | 41.92091 | 36.79488 | 36199 ft | 439 kts | 277° |
| 2026-05-08 11:35 | 41.92634 | 36.71330 | 36199 ft | 438 kts | 277° |
| 2026-05-08 11:35 | 41.93167 | 36.63176 | 36196 ft | 438 kts | 277° |
| 2026-05-08 11:36 | 41.93701 | 36.55023 | 36195 ft | 438 kts | 277° |
| 2026-05-08 11:36 | 41.94229 | 36.46869 | 36189 ft | 438 kts | 277° |
| 2026-05-08 11:37 | 41.94754 | 36.38710 | 36184 ft | 438 kts | 277° |
| 2026-05-08 11:37 | 41.95266 | 36.30558 | 36185 ft | 438 kts | 277° |
| 2026-05-08 11:38 | 41.95765 | 36.22396 | 36185 ft | 439 kts | 277° |
| 2026-05-08 11:38 | 41.96269 | 36.14225 | 36196 ft | 439 kts | 277° |
| 2026-05-08 11:39 | 41.96765 | 36.06103 | 36190 ft | 438 kts | 277° |
| 2026-05-08 11:39 | 41.97266 | 35.97880 | 36195 ft | 438 kts | 277° |
| 2026-05-08 11:40 | 41.97750 | 35.89771 | 36198 ft | 438 kts | 277° |
| 2026-05-08 11:40 | 41.98229 | 35.81607 | 36201 ft | 438 kts | 277° |
| 2026-05-08 11:41 | 41.98704 | 35.73443 | 36205 ft | 438 kts | 276° |
| 2026-05-08 11:41 | 41.99167 | 35.65273 | 36211 ft | 438 kts | 276° |
| 2026-05-08 11:42 | 41.99627 | 35.57116 | 36212 ft | 437 kts | 276° |
| 2026-05-08 11:42 | 42.00084 | 35.48969 | 36219 ft | 437 kts | 276° |
| 2026-05-08 11:43 | 42.00529 | 35.40817 | 36220 ft | 437 kts | 276° |
| 2026-05-08 11:43 | 42.00967 | 35.32665 | 36226 ft | 437 kts | 276° |
| 2026-05-08 11:44 | 42.01411 | 35.24506 | 36229 ft | 437 kts | 276° |
| 2026-05-08 11:44 | 42.01851 | 35.16355 | 36235 ft | 437 kts | 276° |
| 2026-05-08 11:45 | 42.02257 | 35.08212 | 36236 ft | 437 kts | 273° |
| 2026-05-08 11:45 | 42.01949 | 35.00088 | 36239 ft | 438 kts | 269° |
| 2026-05-08 11:46 | 42.01555 | 34.91919 | 36238 ft | 437 kts | 269° |
| 2026-05-08 11:46 | 42.01164 | 34.83762 | 36239 ft | 437 kts | 269° |
| 2026-05-08 11:47 | 42.00773 | 34.75625 | 36240 ft | 436 kts | 269° |
| 2026-05-08 11:47 | 42.00373 | 34.67500 | 36237 ft | 435 kts | 269° |
| 2026-05-08 11:48 | 41.99966 | 34.59388 | 36233 ft | 434 kts | 269° |
| 2026-05-08 11:48 | 41.99556 | 34.51287 | 36231 ft | 434 kts | 269° |
| 2026-05-08 11:49 | 41.99140 | 34.43199 | 36231 ft | 433 kts | 269° |
| 2026-05-08 11:49 | 41.98707 | 34.35130 | 36229 ft | 432 kts | 269° |
| 2026-05-08 11:50 | 41.98284 | 34.27064 | 36223 ft | 432 kts | 269° |
| 2026-05-08 11:50 | 41.97862 | 34.19009 | 36219 ft | 432 kts | 269° |
| 2026-05-08 11:51 | 41.97423 | 34.10952 | 36216 ft | 432 kts | 269° |
| 2026-05-08 11:51 | 41.96975 | 34.02893 | 36214 ft | 432 kts | 269° |
| 2026-05-08 11:52 | 41.96528 | 33.94839 | 36211 ft | 432 kts | 269° |
| 2026-05-08 11:52 | 41.96070 | 33.86842 | 36208 ft | 433 kts | 269° |
| 2026-05-08 11:53 | 41.95603 | 33.78783 | 36209 ft | 432 kts | 269° |
| 2026-05-08 11:53 | 41.95109 | 33.70737 | 36206 ft | 433 kts | 265° |
| 2026-05-08 11:54 | 41.93924 | 33.62774 | 36210 ft | 435 kts | 262° |
| 2026-05-08 11:54 | 41.92671 | 33.54830 | 36211 ft | 434 kts | 262° |
| 2026-05-08 11:55 | 41.91427 | 33.46907 | 36213 ft | 434 kts | 262° |
| 2026-05-08 11:55 | 41.90177 | 33.38986 | 36212 ft | 433 kts | 262° |
| 2026-05-08 11:56 | 41.88926 | 33.31092 | 36207 ft | 432 kts | 262° |
| 2026-05-08 11:56 | 41.87668 | 33.23214 | 36207 ft | 431 kts | 262° |
| 2026-05-08 11:57 | 41.86403 | 33.15354 | 36209 ft | 430 kts | 262° |
| 2026-05-08 11:57 | 41.85137 | 33.07506 | 36209 ft | 430 kts | 261° |
| 2026-05-08 11:58 | 41.83877 | 32.99688 | 36206 ft | 428 kts | 262° |
| 2026-05-08 11:58 | 41.82614 | 32.91894 | 36203 ft | 427 kts | 261° |
| 2026-05-08 11:59 | 41.80712 | 32.80250 | 36191 ft | 425 kts | 261° |
| 2026-05-08 11:59 | 41.79440 | 32.72508 | 36193 ft | 425 kts | 261° |
| 2026-05-08 12:00 | 41.78168 | 32.64775 | 36187 ft | 424 kts | 261° |
| 2026-05-08 12:00 | 41.76891 | 32.57062 | 36187 ft | 424 kts | 261° |
| 2026-05-08 12:01 | 41.75604 | 32.49348 | 36176 ft | 423 kts | 261° |
| 2026-05-08 12:01 | 41.74318 | 32.41663 | 36178 ft | 423 kts | 261° |
| 2026-05-08 12:02 | 41.73036 | 32.34036 | 36175 ft | 422 kts | 261° |
| 2026-05-08 12:02 | 41.71725 | 32.26327 | 36170 ft | 422 kts | 260° |
| 2026-05-08 12:03 | 41.70347 | 32.18696 | 36167 ft | 422 kts | 259° |
| 2026-05-08 12:03 | 41.68947 | 32.11075 | 36164 ft | 421 kts | 260° |
| 2026-05-08 12:04 | 41.67568 | 32.03504 | 36160 ft | 422 kts | 259° |
| 2026-05-08 12:04 | 41.66180 | 31.95882 | 36158 ft | 422 kts | 260° |
| 2026-05-08 12:05 | 41.64793 | 31.88265 | 36159 ft | 421 kts | 260° |
| 2026-05-08 12:05 | 41.63400 | 31.80662 | 36156 ft | 421 kts | 260° |
| 2026-05-08 12:06 | 41.61995 | 31.73069 | 36154 ft | 421 kts | 260° |
| 2026-05-08 12:06 | 41.60591 | 31.65481 | 36156 ft | 420 kts | 260° |
| 2026-05-08 12:07 | 41.59186 | 31.57913 | 36157 ft | 419 kts | 260° |
| 2026-05-08 12:07 | 41.57775 | 31.50358 | 36156 ft | 419 kts | 260° |
| 2026-05-08 12:08 | 41.56356 | 31.42811 | 36157 ft | 419 kts | 260° |
| 2026-05-08 12:08 | 41.55644 | 31.39032 | 36034 ft | 423 kts | 260° |
| 2026-05-08 12:08 | 41.55104 | 31.35171 | 35327 ft | 424 kts | 269° |
| 2026-05-08 12:09 | 41.55106 | 31.31261 | 34720 ft | 419 kts | 278° |
| 2026-05-08 12:09 | 41.55376 | 31.27398 | 34171 ft | 417 kts | 278° |
| 2026-05-08 12:09 | 41.55636 | 31.23550 | 33645 ft | 415 kts | 278° |
| 2026-05-08 12:09 | 41.55885 | 31.19714 | 33116 ft | 413 kts | 277° |
| 2026-05-08 12:10 | 41.56128 | 31.15898 | 32584 ft | 411 kts | 277° |
| 2026-05-08 12:10 | 41.56366 | 31.12103 | 32054 ft | 409 kts | 277° |
| 2026-05-08 12:10 | 41.56599 | 31.08329 | 31529 ft | 407 kts | 277° |
| 2026-05-08 12:10 | 41.56830 | 31.04573 | 31007 ft | 404 kts | 277° |
| 2026-05-08 12:11 | 41.57059 | 31.00842 | 30492 ft | 401 kts | 277° |
| 2026-05-08 12:11 | 41.57289 | 30.97142 | 29980 ft | 399 kts | 277° |
| 2026-05-08 12:11 | 41.57517 | 30.93514 | 29486 ft | 396 kts | 277° |
| 2026-05-08 12:11 | 41.57746 | 30.89865 | 28981 ft | 393 kts | 277° |
| 2026-05-08 12:12 | 41.57974 | 30.86239 | 28495 ft | 390 kts | 277° |
| 2026-05-08 12:12 | 41.58195 | 30.82647 | 28023 ft | 387 kts | 277° |
| 2026-05-08 12:12 | 41.58410 | 30.79086 | 27555 ft | 383 kts | 276° |
| 2026-05-08 12:12 | 41.58621 | 30.75554 | 27105 ft | 379 kts | 276° |
| 2026-05-08 12:13 | 41.58762 | 30.73188 | 26810 ft | 377 kts | 276° |
| 2026-05-08 12:13 | 41.58954 | 30.68573 | 26239 ft | 375 kts | 269° |
| 2026-05-08 12:13 | 41.58606 | 30.65127 | 25822 ft | 375 kts | 258° |
| 2026-05-08 12:13 | 41.57890 | 30.61780 | 25410 ft | 373 kts | 256° |
| 2026-05-08 12:14 | 41.57400 | 30.59540 | 25136 ft | 372 kts | 256° |
| 2026-05-08 12:14 | 41.56680 | 30.56235 | 24723 ft | 369 kts | 257° |
| 2026-05-08 12:14 | 41.56221 | 30.52890 | 24317 ft | 365 kts | 268° |
| 2026-05-08 12:14 | 41.56289 | 30.49535 | 23917 ft | 360 kts | 279° |
| 2026-05-08 12:15 | 41.56838 | 30.46281 | 23511 ft | 359 kts | 286° |
| 2026-05-08 12:15 | 41.57501 | 30.43078 | 23117 ft | 357 kts | 286° |
| 2026-05-08 12:15 | 41.58167 | 30.39889 | 22713 ft | 355 kts | 288° |
| 2026-05-08 12:15 | 41.59166 | 30.36886 | 22317 ft | 354 kts | 301° |
| 2026-05-08 12:16 | 41.60650 | 30.34278 | 21921 ft | 352 kts | 314° |
| 2026-05-08 12:16 | 41.62543 | 30.32212 | 21477 ft | 352 kts | 327° |
| 2026-05-08 12:16 | 41.64671 | 30.30618 | 21045 ft | 351 kts | 330° |
| 2026-05-08 12:16 | 41.66807 | 30.29046 | 20618 ft | 349 kts | 330° |
| 2026-05-08 12:17 | 41.68894 | 30.27495 | 20229 ft | 346 kts | 329° |
| 2026-05-08 12:17 | 41.70968 | 30.25946 | 20024 ft | 337 kts | 329° |
| 2026-05-08 12:17 | 41.72995 | 30.24424 | 19753 ft | 330 kts | 329° |
| 2026-05-08 12:17 | 41.74988 | 30.22911 | 19471 ft | 329 kts | 329° |
| 2026-05-08 12:18 | 41.76934 | 30.21309 | 19137 ft | 326 kts | 321° |
| 2026-05-08 12:18 | 41.78542 | 30.19200 | 18799 ft | 324 kts | 307° |
| 2026-05-08 12:18 | 41.79691 | 30.16628 | 18475 ft | 321 kts | 292° |
| 2026-05-08 12:18 | 41.80322 | 30.13757 | 18149 ft | 322 kts | 279° |
| 2026-05-08 12:19 | 41.80629 | 30.10803 | 17831 ft | 319 kts | 277° |
| 2026-05-08 12:19 | 41.80929 | 30.07863 | 17500 ft | 316 kts | 278° |
| 2026-05-08 12:19 | 41.81233 | 30.04962 | 17178 ft | 316 kts | 278° |
| 2026-05-08 12:19 | 41.81536 | 30.02053 | 16871 ft | 315 kts | 278° |
| 2026-05-08 12:20 | 41.81837 | 29.99147 | 16563 ft | 314 kts | 278° |
| 2026-05-08 12:20 | 41.82137 | 29.96249 | 16240 ft | 313 kts | 278° |
| 2026-05-08 12:20 | 41.82437 | 29.93366 | 15925 ft | 311 kts | 277° |
| 2026-05-08 12:20 | 41.82737 | 29.90501 | 15622 ft | 310 kts | 278° |
| 2026-05-08 12:21 | 41.83033 | 29.87646 | 15304 ft | 308 kts | 277° |
| 2026-05-08 12:21 | 41.83322 | 29.84808 | 14996 ft | 307 kts | 277° |
| 2026-05-08 12:21 | 41.83607 | 29.81978 | 14684 ft | 306 kts | 277° |
| 2026-05-08 12:21 | 41.83891 | 29.79160 | 14374 ft | 304 kts | 277° |
| 2026-05-08 12:22 | 41.84141 | 29.76354 | 14068 ft | 302 kts | 272° |
| 2026-05-08 12:22 | 41.84215 | 29.73544 | 13978 ft | 302 kts | 271° |
| 2026-05-08 12:22 | 41.84297 | 29.70729 | 13880 ft | 302 kts | 272° |
| 2026-05-08 12:22 | 41.84382 | 29.67918 | 13750 ft | 302 kts | 272° |
| 2026-05-08 12:23 | 41.84469 | 29.65112 | 13547 ft | 300 kts | 272° |
| 2026-05-08 12:23 | 41.84553 | 29.62315 | 13426 ft | 300 kts | 271° |
| 2026-05-08 12:23 | 41.84575 | 29.59520 | 13308 ft | 299 kts | 264° |
| 2026-05-08 12:23 | 41.84155 | 29.56804 | 13193 ft | 298 kts | 250° |
| 2026-05-08 12:24 | 41.83280 | 29.54336 | 13076 ft | 297 kts | 240° |
| 2026-05-08 12:24 | 41.82265 | 29.51886 | 12968 ft | 297 kts | 241° |
| 2026-05-08 12:24 | 41.81275 | 29.49461 | 12843 ft | 296 kts | 241° |
| 2026-05-08 12:24 | 41.80309 | 29.47068 | 12730 ft | 296 kts | 244° |
| 2026-05-08 12:25 | 41.79612 | 29.44488 | 12608 ft | 295 kts | 257° |
| 2026-05-08 12:25 | 41.79163 | 29.41805 | 12492 ft | 295 kts | 257° |
| 2026-05-08 12:25 | 41.78707 | 29.39132 | 12380 ft | 294 kts | 257° |
| 2026-05-08 12:25 | 41.78246 | 29.36463 | 12270 ft | 293 kts | 257° |
| 2026-05-08 12:26 | 41.77794 | 29.33850 | 12141 ft | 283 kts | 257° |
| 2026-05-08 12:26 | 41.77355 | 29.31326 | 11981 ft | 274 kts | 257° |
| 2026-05-08 12:26 | 41.76928 | 29.28864 | 11805 ft | 267 kts | 257° |
| 2026-05-08 12:26 | 41.76505 | 29.26438 | 11615 ft | 267 kts | 256° |
| 2026-05-08 12:27 | 41.76082 | 29.24021 | 11388 ft | 266 kts | 256° |
| 2026-05-08 12:27 | 41.75661 | 29.21605 | 11155 ft | 265 kts | 256° |
| 2026-05-08 12:27 | 41.75244 | 29.19210 | 10914 ft | 264 kts | 256° |
| 2026-05-08 12:27 | 41.74925 | 29.16796 | 10675 ft | 263 kts | 268° |
| 2026-05-08 12:28 | 41.75162 | 29.14382 | 10445 ft | 263 kts | 287° |
| 2026-05-08 12:28 | 41.75996 | 29.12204 | 10203 ft | 266 kts | 306° |
| 2026-05-08 12:28 | 41.77231 | 29.10359 | 9969 ft | 265 kts | 311° |
| 2026-05-08 12:28 | 41.78473 | 29.08534 | 9728 ft | 265 kts | 310° |
| 2026-05-08 12:29 | 41.79709 | 29.06706 | 9480 ft | 264 kts | 310° |
| 2026-05-08 12:29 | 41.80938 | 29.04885 | 9227 ft | 263 kts | 310° |
| 2026-05-08 12:29 | 41.82165 | 29.03072 | 8995 ft | 262 kts | 310° |
| 2026-05-08 12:29 | 41.83241 | 29.01131 | 8756 ft | 258 kts | 294° |
| 2026-05-08 12:30 | 41.83771 | 28.98861 | 8520 ft | 254 kts | 275° |
| 2026-05-08 12:30 | 41.83712 | 28.96508 | 8283 ft | 252 kts | 257° |
| 2026-05-08 12:30 | 41.83225 | 28.94253 | 8048 ft | 252 kts | 252° |
| 2026-05-08 12:30 | 41.82721 | 28.92009 | 7814 ft | 251 kts | 252° |
| 2026-05-08 12:31 | 41.82221 | 28.89773 | 7560 ft | 250 kts | 253° |
| 2026-05-08 12:31 | 41.81711 | 28.87553 | 7316 ft | 248 kts | 248° |
| 2026-05-08 12:31 | 41.80732 | 28.85698 | 7080 ft | 246 kts | 218° |
| 2026-05-08 12:31 | 41.79166 | 28.84805 | 6861 ft | 249 kts | 187° |
| 2026-05-08 12:32 | 41.77457 | 28.85177 | 6645 ft | 254 kts | 158° |
| 2026-05-08 12:32 | 41.75832 | 28.86123 | 6420 ft | 255 kts | 163° |
| 2026-05-08 12:32 | 41.74138 | 28.86756 | 6206 ft | 249 kts | 177° |
| 2026-05-08 12:32 | 41.72467 | 28.86559 | 6001 ft | 238 kts | 199° |
| 2026-05-08 12:33 | 41.70979 | 28.85646 | 5677 ft | 235 kts | 216° |
| 2026-05-08 12:33 | 41.69728 | 28.84248 | 5336 ft | 234 kts | 222° |
| 2026-05-08 12:33 | 41.68489 | 28.82831 | 4999 ft | 234 kts | 221° |
| 2026-05-08 12:33 | 41.67243 | 28.81432 | 4656 ft | 234 kts | 221° |
| 2026-05-08 12:34 | 41.66007 | 28.80050 | 4396 ft | 230 kts | 221° |
| 2026-05-08 12:34 | 41.64754 | 28.78706 | 4049 ft | 228 kts | 213° |
| 2026-05-08 12:34 | 41.63392 | 28.77685 | 4018 ft | 224 kts | 210° |
| 2026-05-08 12:34 | 41.62032 | 28.76680 | 4031 ft | 218 kts | 210° |
| 2026-05-08 12:35 | 41.60715 | 28.75706 | 4022 ft | 215 kts | 209° |
| 2026-05-08 12:35 | 41.59291 | 28.75095 | 4017 ft | 217 kts | 189° |
| 2026-05-08 12:35 | 41.57772 | 28.75066 | 4032 ft | 218 kts | 181° |
| 2026-05-08 12:35 | 41.56253 | 28.75098 | 4035 ft | 218 kts | 181° |
| 2026-05-08 12:36 | 41.54734 | 28.75129 | 4020 ft | 215 kts | 182° |
| 2026-05-08 12:36 | 41.53305 | 28.75156 | 3999 ft | 204 kts | 182° |
| 2026-05-08 12:36 | 41.51887 | 28.75182 | 4024 ft | 203 kts | 182° |
| 2026-05-08 12:36 | 41.50472 | 28.75209 | 4030 ft | 203 kts | 182° |
| 2026-05-08 12:37 | 41.49057 | 28.75236 | 3999 ft | 204 kts | 182° |
| 2026-05-08 12:37 | 41.47671 | 28.75264 | 3842 ft | 193 kts | 182° |
| 2026-05-08 12:37 | 41.46362 | 28.75290 | 3606 ft | 186 kts | 182° |
| 2026-05-08 12:37 | 41.45076 | 28.75314 | 3364 ft | 184 kts | 182° |
| 2026-05-08 12:38 | 41.43794 | 28.75337 | 3118 ft | 183 kts | 182° |
| 2026-05-08 12:38 | 41.42526 | 28.75362 | 2879 ft | 176 kts | 182° |
| 2026-05-08 12:38 | 41.41345 | 28.75384 | 2663 ft | 166 kts | 182° |
| 2026-05-08 12:38 | 41.40210 | 28.75406 | 2425 ft | 161 kts | 183° |
| 2026-05-08 12:39 | 41.39100 | 28.75425 | 2212 ft | 159 kts | 182° |
| 2026-05-08 12:39 | 41.38000 | 28.75446 | 2006 ft | 158 kts | 182° |
| 2026-05-08 12:39 | 41.36913 | 28.75469 | 1806 ft | 150 kts | 182° |
| 2026-05-08 12:39 | 41.35913 | 28.75489 | 1602 ft | 139 kts | 184° |
| 2026-05-08 12:40 | 41.34961 | 28.75513 | 1422 ft | 136 kts | 184° |
| 2026-05-08 12:40 | 41.34024 | 28.75535 | 1264 ft | 134 kts | 185° |
| 2026-05-08 12:40 | 41.33098 | 28.75550 | 1064 ft | 133 kts | 186° |
| 2026-05-08 12:40 | 41.32170 | 28.75585 | 897 ft | 134 kts | 188° |
| 2026-05-08 12:41 | 41.31243 | 28.75595 | 731 ft | 134 kts | 189° |
| 2026-05-08 12:41 | 41.30308 | 28.75601 | 546 ft | 134 kts | 185° |
| 2026-05-08 12:41 | 41.29392 | 28.75616 | 411 ft | 132 kts | 185° |
| 2026-05-08 12:41 | 41.28479 | 28.75632 | 339 ft | 123 kts | 187° |
| 2026-05-08 12:42 | 41.27755 | 28.75636 | 332 ft | 82 kts | 178° |
| 2026-05-08 12:42 | 41.27348 | 28.75645 | 334 ft | 40 kts | 179° |
| 2026-05-08 12:42 | 41.27159 | 28.75604 | 334 ft | 20 kts | 201° |
| 2026-05-08 12:42 | 41.27042 | 28.75525 | 334 ft | 17 kts | 208° |
| 2026-05-08 12:43 | 41.26980 | 28.75441 | 332 ft | 12 kts | 257° |
| 2026-05-08 12:43 | 41.26983 | 28.75330 | 332 ft | 12 kts | 271° |
| 2026-05-08 12:43 | 41.26982 | 28.75212 | 330 ft | 13 kts | 269° |
| 2026-05-08 12:43 | 41.26980 | 28.75082 | 332 ft | 15 kts | 269° |
| 2026-05-08 12:44 | 41.26978 | 28.74944 | 334 ft | 15 kts | 269° |
| 2026-05-08 12:44 | 41.26975 | 28.74798 | 334 ft | 16 kts | 269° |
| 2026-05-08 12:44 | 41.26973 | 28.74646 | 330 ft | 17 kts | 269° |
| 2026-05-08 12:44 | 41.26972 | 28.74488 | 334 ft | 17 kts | 269° |
| 2026-05-08 12:45 | 41.26970 | 28.74324 | 334 ft | 18 kts | 269° |
| 2026-05-08 12:45 | 41.26968 | 28.74166 | 334 ft | 12 kts | 269° |
| 2026-05-08 12:45 | 41.26966 | 28.74063 | 331 ft | 11 kts | 265° |
| 2026-05-08 12:45 | 41.26910 | 28.74015 | 331 ft | 11 kts | 180° |
| 2026-05-08 12:46 | 41.26824 | 28.74017 | 334 ft | 13 kts | 179° |
| 2026-05-08 12:46 | 41.26727 | 28.74020 | 331 ft | 15 kts | 179° |
| 2026-05-08 12:46 | 41.26618 | 28.74022 | 332 ft | 16 kts | 179° |
| 2026-05-08 12:46 | 41.26508 | 28.74025 | 331 ft | 12 kts | 179° |
| 2026-05-08 12:47 | 41.26449 | 28.74029 | 331 ft | 3 kts | 166° |
| 2026-05-08 12:47 | 41.26432 | 28.74057 | 334 ft | 5 kts | 115° |
| 2026-05-08 12:47 | 41.26423 | 28.74107 | 331 ft | 4 kts | 102° |
| 2026-05-08 12:47 | 41.26422 | 28.74120 | 332 ft | 2 kts | 100° |
| 2026-05-08 12:48 | 41.26421 | 28.74122 | 334 ft | 0 kts | 100° |